sensor_id;sensor_type;location;lat;lon;timestamp;temperature;humidity
6581;DHT22;3324;50.796;7.228;2022-10-17T00:00:45;16.80;99.90
6581;DHT22;3324;50.796;7.228;2022-10-17T00:03:11;16.80;99.90
6581;DHT22;3324;50.796;7.228;2022-10-17T00:05:42;16.90;99.90
6581;DHT22;3324;50.796;7.228;2022-10-17T00:08:09;16.90;99.90
6581;DHT22;3324;50.796;7.228;2022-10-17T00:10:36;16.90;99.90
6581;DHT22;3324;50.796;7.228;2022-10-17T00:13:02;16.90;99.90
6581;DHT22;3324;50.796;7.228;2022-10-17T00:15:28;16.90;99.90
6581;DHT22;3324;50.796;7.228;2022-10-17T00:17:54;16.90;99.90
6581;DHT22;3324;50.796;7.228;2022-10-17T00:20:19;17.00;99.90
6581;DHT22;3324;50.796;7.228;2022-10-17T00:22:45;17.00;99.90
6581;DHT22;3324;50.796;7.228;2022-10-17T00:25:11;17.00;99.90
6581;DHT22;3324;50.796;7.228;2022-10-17T00:27:38;17.00;99.90
6581;DHT22;3324;50.796;7.228;2022-10-17T00:30:06;17.00;99.90
6581;DHT22;3324;50.796;7.228;2022-10-17T00:32:32;17.00;99.90
6581;DHT22;3324;50.796;7.228;2022-10-17T00:34:57;17.00;99.90
6581;DHT22;3324;50.796;7.228;2022-10-17T00:37:23;17.00;99.90
6581;DHT22;3324;50.796;7.228;2022-10-17T00:39:49;17.00;99.90
6581;DHT22;3324;50.796;7.228;2022-10-17T00:42:15;17.00;99.90
6581;DHT22;3324;50.796;7.228;2022-10-17T00:47:10;17.10;99.90
6581;DHT22;3324;50.796;7.228;2022-10-17T00:49:39;17.00;99.90
6581;DHT22;3324;50.796;7.228;2022-10-17T00:52:14;17.10;99.90
6581;DHT22;3324;50.796;7.228;2022-10-17T00:54:47;17.00;99.90
6581;DHT22;3324;50.796;7.228;2022-10-17T00:57:14;17.10;99.90
6581;DHT22;3324;50.796;7.228;2022-10-17T00:59:42;17.00;99.90
6581;DHT22;3324;50.796;7.228;2022-10-17T01:02:12;17.10;99.90
6581;DHT22;3324;50.796;7.228;2022-10-17T01:04:41;17.10;99.90
6581;DHT22;3324;50.796;7.228;2022-10-17T01:07:08;17.10;99.90
6581;DHT22;3324;50.796;7.228;2022-10-17T01:09:34;17.00;99.90
6581;DHT22;3324;50.796;7.228;2022-10-17T01:17:23;17.00;99.90
6581;DHT22;3324;50.796;7.228;2022-10-17T01:23:20;17.00;99.90
6581;DHT22;3324;50.796;7.228;2022-10-17T01:26:04;17.00;99.90
6581;DHT22;3324;50.796;7.228;2022-10-17T01:28:44;17.10;99.90
6581;DHT22;3324;50.796;7.228;2022-10-17T01:31:18;17.00;99.90
6581;DHT22;3324;50.796;7.228;2022-10-17T01:36:25;17.00;99.90
6581;DHT22;3324;50.796;7.228;2022-10-17T01:39:00;17.00;99.90
6581;DHT22;3324;50.796;7.228;2022-10-17T01:42:09;17.00;99.90
6581;DHT22;3324;50.796;7.228;2022-10-17T01:47:00;17.00;99.90
6581;DHT22;3324;50.796;7.228;2022-10-17T01:49:28;17.00;99.90
6581;DHT22;3324;50.796;7.228;2022-10-17T01:51:59;17.00;99.90
6581;DHT22;3324;50.796;7.228;2022-10-17T01:55:31;17.00;99.90
6581;DHT22;3324;50.796;7.228;2022-10-17T01:57:29;17.10;99.90
6581;DHT22;3324;50.796;7.228;2022-10-17T01:59:57;17.10;99.90
6581;DHT22;3324;50.796;7.228;2022-10-17T02:02:23;17.10;99.90
6581;DHT22;3324;50.796;7.228;2022-10-17T02:04:51;17.10;99.90
6581;DHT22;3324;50.796;7.228;2022-10-17T02:07:17;17.10;99.90
6581;DHT22;3324;50.796;7.228;2022-10-17T02:09:43;17.00;99.90
6581;DHT22;3324;50.796;7.228;2022-10-17T02:22:45;17.10;99.90
6581;DHT22;3324;50.796;7.228;2022-10-17T02:25:28;17.10;99.90
6581;DHT22;3324;50.796;7.228;2022-10-17T02:28:13;17.10;99.90
6581;DHT22;3324;50.796;7.228;2022-10-17T02:33:28;17.10;99.90
6581;DHT22;3324;50.796;7.228;2022-10-17T02:36:01;17.10;99.90
6581;DHT22;3324;50.796;7.228;2022-10-17T02:38:29;17.20;99.90
6581;DHT22;3324;50.796;7.228;2022-10-17T02:40:56;17.20;99.90
6581;DHT22;3324;50.796;7.228;2022-10-17T02:43:22;17.20;99.90
6581;DHT22;3324;50.796;7.228;2022-10-17T02:45:49;17.30;99.90
6581;DHT22;3324;50.796;7.228;2022-10-17T02:48:39;17.30;99.90
6581;DHT22;3324;50.796;7.228;2022-10-17T02:53:42;17.30;99.90
6581;DHT22;3324;50.796;7.228;2022-10-17T02:56:17;17.30;99.90
6581;DHT22;3324;50.796;7.228;2022-10-17T02:58:48;17.30;99.90
6581;DHT22;3324;50.796;7.228;2022-10-17T03:01:15;17.30;99.90
6581;DHT22;3324;50.796;7.228;2022-10-17T03:03:42;17.30;99.90
6581;DHT22;3324;50.796;7.228;2022-10-17T03:06:08;17.30;99.90
6581;DHT22;3324;50.796;7.228;2022-10-17T03:08:33;17.30;99.90
6581;DHT22;3324;50.796;7.228;2022-10-17T03:10:59;17.40;99.90
6581;DHT22;3324;50.796;7.228;2022-10-17T03:13:24;17.40;99.90
6581;DHT22;3324;50.796;7.228;2022-10-17T03:15:50;17.40;99.90
6581;DHT22;3324;50.796;7.228;2022-10-17T03:18:16;17.40;99.90
6581;DHT22;3324;50.796;7.228;2022-10-17T03:20:41;17.40;99.90
6581;DHT22;3324;50.796;7.228;2022-10-17T03:23:07;17.40;99.90
6581;DHT22;3324;50.796;7.228;2022-10-17T03:25:32;17.40;99.90
6581;DHT22;3324;50.796;7.228;2022-10-17T03:27:58;17.40;99.90
6581;DHT22;3324;50.796;7.228;2022-10-17T03:30:26;17.40;99.90
6581;DHT22;3324;50.796;7.228;2022-10-17T03:32:51;17.40;99.90
6581;DHT22;3324;50.796;7.228;2022-10-17T03:35:17;17.40;99.90
6581;DHT22;3324;50.796;7.228;2022-10-17T03:37:42;17.40;99.90
6581;DHT22;3324;50.796;7.228;2022-10-17T03:40:08;17.40;99.90
6581;DHT22;3324;50.796;7.228;2022-10-17T03:42:34;17.40;99.90
6581;DHT22;3324;50.796;7.228;2022-10-17T03:45:00;17.40;99.90
6581;DHT22;3324;50.796;7.228;2022-10-17T03:47:27;17.40;99.90
6581;DHT22;3324;50.796;7.228;2022-10-17T03:49:52;17.30;99.90
6581;DHT22;3324;50.796;7.228;2022-10-17T03:52:19;17.30;99.90
6581;DHT22;3324;50.796;7.228;2022-10-17T03:54:44;17.30;99.90
6581;DHT22;3324;50.796;7.228;2022-10-17T03:57:10;17.30;99.90
6581;DHT22;3324;50.796;7.228;2022-10-17T03:59:35;17.30;99.90
6581;DHT22;3324;50.796;7.228;2022-10-17T04:02:01;17.30;99.90
6581;DHT22;3324;50.796;7.228;2022-10-17T04:04:27;17.30;99.90
6581;DHT22;3324;50.796;7.228;2022-10-17T04:06:52;17.30;99.90
6581;DHT22;3324;50.796;7.228;2022-10-17T04:09:18;17.30;99.90
6581;DHT22;3324;50.796;7.228;2022-10-17T04:11:43;17.20;99.90
6581;DHT22;3324;50.796;7.228;2022-10-17T04:14:09;17.20;99.90
6581;DHT22;3324;50.796;7.228;2022-10-17T04:16:35;17.20;99.90
6581;DHT22;3324;50.796;7.228;2022-10-17T04:19:01;17.30;99.90
6581;DHT22;3324;50.796;7.228;2022-10-17T04:21:27;17.30;99.90
6581;DHT22;3324;50.796;7.228;2022-10-17T04:23:54;17.30;99.90
6581;DHT22;3324;50.796;7.228;2022-10-17T04:26:20;17.30;99.90
6581;DHT22;3324;50.796;7.228;2022-10-17T04:28:45;17.30;99.90
6581;DHT22;3324;50.796;7.228;2022-10-17T04:31:13;17.30;99.90
6581;DHT22;3324;50.796;7.228;2022-10-17T04:33:39;17.30;99.90
6581;DHT22;3324;50.796;7.228;2022-10-17T04:36:10;17.30;99.90
6581;DHT22;3324;50.796;7.228;2022-10-17T04:38:36;17.20;99.90
6581;DHT22;3324;50.796;7.228;2022-10-17T04:41:06;17.20;99.90
6581;DHT22;3324;50.796;7.228;2022-10-17T04:43:34;17.20;99.90
6581;DHT22;3324;50.796;7.228;2022-10-17T04:46:02;17.20;99.90
6581;DHT22;3324;50.796;7.228;2022-10-17T04:48:28;17.10;99.90
6581;DHT22;3324;50.796;7.228;2022-10-17T04:50:58;17.20;99.90
6581;DHT22;3324;50.796;7.228;2022-10-17T04:53:24;17.10;99.90
6581;DHT22;3324;50.796;7.228;2022-10-17T04:55:50;17.10;99.90
6581;DHT22;3324;50.796;7.228;2022-10-17T04:58:15;17.10;99.90
6581;DHT22;3324;50.796;7.228;2022-10-17T05:00:41;17.10;99.90
6581;DHT22;3324;50.796;7.228;2022-10-17T05:03:07;17.20;99.90
6581;DHT22;3324;50.796;7.228;2022-10-17T05:05:32;17.10;99.90
6581;DHT22;3324;50.796;7.228;2022-10-17T05:07:58;17.10;99.90
6581;DHT22;3324;50.796;7.228;2022-10-17T05:10:24;17.10;99.90
6581;DHT22;3324;50.796;7.228;2022-10-17T05:12:50;17.00;99.90
6581;DHT22;3324;50.796;7.228;2022-10-17T05:15:16;17.10;99.90
6581;DHT22;3324;50.796;7.228;2022-10-17T05:17:42;17.10;99.90
6581;DHT22;3324;50.796;7.228;2022-10-17T05:20:09;17.10;99.90
6581;DHT22;3324;50.796;7.228;2022-10-17T05:22:34;17.20;99.90
6581;DHT22;3324;50.796;7.228;2022-10-17T05:25:00;17.10;99.90
6581;DHT22;3324;50.796;7.228;2022-10-17T05:27:26;17.10;99.90
6581;DHT22;3324;50.796;7.228;2022-10-17T05:29:51;17.20;99.90
6581;DHT22;3324;50.796;7.228;2022-10-17T05:32:17;17.20;99.90
6581;DHT22;3324;50.796;7.228;2022-10-17T05:34:42;17.20;99.90
6581;DHT22;3324;50.796;7.228;2022-10-17T05:37:08;17.20;99.90
6581;DHT22;3324;50.796;7.228;2022-10-17T05:39:33;17.10;99.90
6581;DHT22;3324;50.796;7.228;2022-10-17T05:41:59;17.10;99.90
6581;DHT22;3324;50.796;7.228;2022-10-17T05:44:25;17.10;99.90
6581;DHT22;3324;50.796;7.228;2022-10-17T05:46:50;17.20;99.90
6581;DHT22;3324;50.796;7.228;2022-10-17T05:49:16;17.10;99.90
6581;DHT22;3324;50.796;7.228;2022-10-17T05:51:42;17.20;99.90
6581;DHT22;3324;50.796;7.228;2022-10-17T05:54:08;17.30;99.90
6581;DHT22;3324;50.796;7.228;2022-10-17T05:56:34;17.20;99.90
6581;DHT22;3324;50.796;7.228;2022-10-17T05:59:00;17.20;99.90
6581;DHT22;3324;50.796;7.228;2022-10-17T06:01:25;17.10;99.90
6581;DHT22;3324;50.796;7.228;2022-10-17T06:03:51;17.10;99.90
6581;DHT22;3324;50.796;7.228;2022-10-17T06:06:17;17.10;99.90
6581;DHT22;3324;50.796;7.228;2022-10-17T06:08:44;17.10;99.90
6581;DHT22;3324;50.796;7.228;2022-10-17T06:11:10;17.10;99.90
6581;DHT22;3324;50.796;7.228;2022-10-17T06:13:38;17.00;99.90
6581;DHT22;3324;50.796;7.228;2022-10-17T06:16:04;17.00;99.90
6581;DHT22;3324;50.796;7.228;2022-10-17T06:18:30;17.10;99.90
6581;DHT22;3324;50.796;7.228;2022-10-17T06:21:03;17.00;99.90
6581;DHT22;3324;50.796;7.228;2022-10-17T06:23:29;17.10;99.90
6581;DHT22;3324;50.796;7.228;2022-10-17T06:25:59;17.10;99.90
6581;DHT22;3324;50.796;7.228;2022-10-17T06:28:25;17.10;99.90
6581;DHT22;3324;50.796;7.228;2022-10-17T06:30:50;17.10;99.90
6581;DHT22;3324;50.796;7.228;2022-10-17T06:33:16;17.10;99.90
6581;DHT22;3324;50.796;7.228;2022-10-17T06:35:42;17.00;99.90
6581;DHT22;3324;50.796;7.228;2022-10-17T06:38:08;17.10;99.90
6581;DHT22;3324;50.796;7.228;2022-10-17T06:40:34;17.10;99.90
6581;DHT22;3324;50.796;7.228;2022-10-17T06:42:59;17.10;99.90
6581;DHT22;3324;50.796;7.228;2022-10-17T06:45:25;17.10;99.90
6581;DHT22;3324;50.796;7.228;2022-10-17T06:47:51;17.10;99.90
6581;DHT22;3324;50.796;7.228;2022-10-17T06:50:16;17.10;99.90
6581;DHT22;3324;50.796;7.228;2022-10-17T06:52:42;17.10;99.90
6581;DHT22;3324;50.796;7.228;2022-10-17T06:55:08;17.20;99.90
6581;DHT22;3324;50.796;7.228;2022-10-17T06:57:33;17.20;99.90
6581;DHT22;3324;50.796;7.228;2022-10-17T06:59:59;17.20;99.90
6581;DHT22;3324;50.796;7.228;2022-10-17T07:02:24;17.30;99.90
6581;DHT22;3324;50.796;7.228;2022-10-17T07:04:50;17.30;99.90
6581;DHT22;3324;50.796;7.228;2022-10-17T07:07:16;17.30;99.90
6581;DHT22;3324;50.796;7.228;2022-10-17T07:09:41;17.40;99.90
6581;DHT22;3324;50.796;7.228;2022-10-17T07:12:07;17.40;99.90
6581;DHT22;3324;50.796;7.228;2022-10-17T07:14:34;17.50;99.90
6581;DHT22;3324;50.796;7.228;2022-10-17T07:17:00;17.50;99.90
6581;DHT22;3324;50.796;7.228;2022-10-17T07:19:26;17.60;99.90
6581;DHT22;3324;50.796;7.228;2022-10-17T07:21:52;17.60;99.90
6581;DHT22;3324;50.796;7.228;2022-10-17T07:24:18;17.70;99.90
6581;DHT22;3324;50.796;7.228;2022-10-17T07:26:43;17.70;99.90
6581;DHT22;3324;50.796;7.228;2022-10-17T07:29:09;17.80;99.90
6581;DHT22;3324;50.796;7.228;2022-10-17T07:31:35;17.80;99.90
6581;DHT22;3324;50.796;7.228;2022-10-17T07:34:01;17.90;99.90
6581;DHT22;3324;50.796;7.228;2022-10-17T07:36:26;17.90;99.90
6581;DHT22;3324;50.796;7.228;2022-10-17T07:38:52;17.90;99.90
6581;DHT22;3324;50.796;7.228;2022-10-17T07:41:18;17.90;99.90
6581;DHT22;3324;50.796;7.228;2022-10-17T07:43:44;17.90;99.90
6581;DHT22;3324;50.796;7.228;2022-10-17T07:46:10;17.90;99.90
6581;DHT22;3324;50.796;7.228;2022-10-17T07:48:36;17.90;99.90
6581;DHT22;3324;50.796;7.228;2022-10-17T07:51:05;17.90;99.90
6581;DHT22;3324;50.796;7.228;2022-10-17T07:53:33;18.00;99.90
6581;DHT22;3324;50.796;7.228;2022-10-17T07:56:05;18.00;99.90
6581;DHT22;3324;50.796;7.228;2022-10-17T07:58:31;18.00;99.90
6581;DHT22;3324;50.796;7.228;2022-10-17T08:01:01;18.10;99.90
6581;DHT22;3324;50.796;7.228;2022-10-17T08:03:27;18.10;99.90
6581;DHT22;3324;50.796;7.228;2022-10-17T08:05:56;18.10;99.90
6581;DHT22;3324;50.796;7.228;2022-10-17T08:08:22;18.20;99.90
6581;DHT22;3324;50.796;7.228;2022-10-17T08:10:47;18.30;99.90
6581;DHT22;3324;50.796;7.228;2022-10-17T08:13:13;18.30;99.90
6581;DHT22;3324;50.796;7.228;2022-10-17T08:15:38;18.40;99.90
6581;DHT22;3324;50.796;7.228;2022-10-17T08:18:04;18.40;99.90
6581;DHT22;3324;50.796;7.228;2022-10-17T08:20:30;18.50;99.90
6581;DHT22;3324;50.796;7.228;2022-10-17T08:22:55;18.60;99.90
6581;DHT22;3324;50.796;7.228;2022-10-17T08:25:21;18.70;99.90
6581;DHT22;3324;50.796;7.228;2022-10-17T08:27:48;18.70;99.90
6581;DHT22;3324;50.796;7.228;2022-10-17T08:30:13;18.70;99.90
6581;DHT22;3324;50.796;7.228;2022-10-17T08:32:39;18.70;99.90
6581;DHT22;3324;50.796;7.228;2022-10-17T08:35:05;18.70;99.90
6581;DHT22;3324;50.796;7.228;2022-10-17T08:37:31;18.70;99.90
6581;DHT22;3324;50.796;7.228;2022-10-17T08:39:57;18.70;99.90
6581;DHT22;3324;50.796;7.228;2022-10-17T08:45:31;18.80;99.90
6581;DHT22;3324;50.796;7.228;2022-10-17T08:48:09;18.80;99.90
6581;DHT22;3324;50.796;7.228;2022-10-17T08:50:48;18.80;99.90
6581;DHT22;3324;50.796;7.228;2022-10-17T08:55:49;18.80;99.90
6581;DHT22;3324;50.796;7.228;2022-10-17T09:09:39;18.90;99.90
6581;DHT22;3324;50.796;7.228;2022-10-17T09:12:21;18.90;99.90
6581;DHT22;3324;50.796;7.228;2022-10-17T09:17:26;18.90;99.90
6581;DHT22;3324;50.796;7.228;2022-10-17T09:20:03;18.90;99.90
6581;DHT22;3324;50.796;7.228;2022-10-17T09:22:38;19.00;99.90
6581;DHT22;3324;50.796;7.228;2022-10-17T09:25:11;19.00;99.90
6581;DHT22;3324;50.796;7.228;2022-10-17T09:27:45;19.20;99.90
6581;DHT22;3324;50.796;7.228;2022-10-17T09:32:56;19.40;99.90
6581;DHT22;3324;50.796;7.228;2022-10-17T09:35:22;19.60;99.90
6581;DHT22;3324;50.796;7.228;2022-10-17T09:37:48;19.70;99.90
6581;DHT22;3324;50.796;7.228;2022-10-17T09:40:31;19.80;99.90
6581;DHT22;3324;50.796;7.228;2022-10-17T09:43:00;19.90;99.90
6581;DHT22;3324;50.796;7.228;2022-10-17T09:45:28;20.00;99.90
6581;DHT22;3324;50.796;7.228;2022-10-17T09:48:03;20.00;99.90
6581;DHT22;3324;50.796;7.228;2022-10-17T09:50:31;20.10;99.90
6581;DHT22;3324;50.796;7.228;2022-10-17T09:53:14;20.10;99.90
6581;DHT22;3324;50.796;7.228;2022-10-17T09:55:43;20.10;99.90
6581;DHT22;3324;50.796;7.228;2022-10-17T09:58:10;20.10;99.90
6581;DHT22;3324;50.796;7.228;2022-10-17T10:00:41;20.10;99.90
6581;DHT22;3324;50.796;7.228;2022-10-17T10:03:17;20.20;99.90
6581;DHT22;3324;50.796;7.228;2022-10-17T10:10:58;20.40;99.90
6581;DHT22;3324;50.796;7.228;2022-10-17T10:13:26;20.30;99.90
6581;DHT22;3324;50.796;7.228;2022-10-17T10:15:52;20.40;99.90
6581;DHT22;3324;50.796;7.228;2022-10-17T10:21:09;20.50;99.90
6581;DHT22;3324;50.796;7.228;2022-10-17T10:23:36;20.70;99.90
6581;DHT22;3324;50.796;7.228;2022-10-17T10:26:21;20.60;99.90
6581;DHT22;3324;50.796;7.228;2022-10-17T10:28:54;20.70;99.90
6581;DHT22;3324;50.796;7.228;2022-10-17T10:31:29;20.70;99.90
6581;DHT22;3324;50.796;7.228;2022-10-17T10:33:56;20.70;99.90
6581;DHT22;3324;50.796;7.228;2022-10-17T10:36:23;20.80;99.90
6581;DHT22;3324;50.796;7.228;2022-10-17T10:38:56;20.70;99.90
6581;DHT22;3324;50.796;7.228;2022-10-17T10:41:22;20.80;99.90
6581;DHT22;3324;50.796;7.228;2022-10-17T10:43:53;20.90;99.90
6581;DHT22;3324;50.796;7.228;2022-10-17T10:46:22;20.80;99.90
6581;DHT22;3324;50.796;7.228;2022-10-17T10:48:55;20.90;99.90
6581;DHT22;3324;50.796;7.228;2022-10-17T10:54:15;21.00;99.90
6581;DHT22;3324;50.796;7.228;2022-10-17T10:56:48;21.00;99.90
6581;DHT22;3324;50.796;7.228;2022-10-17T11:05:02;21.10;99.90
6581;DHT22;3324;50.796;7.228;2022-10-17T11:07:39;21.00;99.90
6581;DHT22;3324;50.796;7.228;2022-10-17T11:10:47;21.00;99.90
6581;DHT22;3324;50.796;7.228;2022-10-17T11:13:26;21.10;99.90
6581;DHT22;3324;50.796;7.228;2022-10-17T11:16:09;21.20;99.90
6581;DHT22;3324;50.796;7.228;2022-10-17T11:23:47;21.30;99.90
6581;DHT22;3324;50.796;7.228;2022-10-17T11:26:28;21.20;99.90
6581;DHT22;3324;50.796;7.228;2022-10-17T11:28:56;21.20;99.90
6581;DHT22;3324;50.796;7.228;2022-10-17T11:31:25;21.20;99.90
6581;DHT22;3324;50.796;7.228;2022-10-17T11:36:30;21.50;99.90
6581;DHT22;3324;50.796;7.228;2022-10-17T11:39:04;21.40;99.90
6581;DHT22;3324;50.796;7.228;2022-10-17T11:41:52;21.50;99.90
6581;DHT22;3324;50.796;7.228;2022-10-17T11:44:37;21.50;99.90
6581;DHT22;3324;50.796;7.228;2022-10-17T11:47:23;21.40;99.90
6581;DHT22;3324;50.796;7.228;2022-10-17T11:49:56;21.40;99.90
6581;DHT22;3324;50.796;7.228;2022-10-17T11:52:41;21.40;99.90
6581;DHT22;3324;50.796;7.228;2022-10-17T11:55:19;21.30;99.90
6581;DHT22;3324;50.796;7.228;2022-10-17T11:58:00;21.30;99.90
6581;DHT22;3324;50.796;7.228;2022-10-17T12:03:41;21.20;99.90
6581;DHT22;3324;50.796;7.228;2022-10-17T12:17:01;21.50;99.90
6581;DHT22;3324;50.796;7.228;2022-10-17T12:19:35;21.50;99.90
6581;DHT22;3324;50.796;7.228;2022-10-17T12:22:04;21.60;99.90
6581;DHT22;3324;50.796;7.228;2022-10-17T12:24:36;21.60;99.90
6581;DHT22;3324;50.796;7.228;2022-10-17T12:27:23;21.50;99.90
6581;DHT22;3324;50.796;7.228;2022-10-17T12:30:02;21.50;99.90
6581;DHT22;3324;50.796;7.228;2022-10-17T12:32:28;21.70;99.90
6581;DHT22;3324;50.796;7.228;2022-10-17T12:34:55;21.70;99.90
6581;DHT22;3324;50.796;7.228;2022-10-17T12:38:23;21.80;99.90
6581;DHT22;3324;50.796;7.228;2022-10-17T12:45:47;21.70;99.90
6581;DHT22;3324;50.796;7.228;2022-10-17T12:51:12;21.90;99.90
6581;DHT22;3324;50.796;7.228;2022-10-17T12:56:50;22.00;99.90
6581;DHT22;3324;50.796;7.228;2022-10-17T12:59:23;22.00;99.90
6581;DHT22;3324;50.796;7.228;2022-10-17T13:01:52;22.00;99.90
6581;DHT22;3324;50.796;7.228;2022-10-17T13:04:19;21.90;99.90
6581;DHT22;3324;50.796;7.228;2022-10-17T13:06:51;21.90;99.90
6581;DHT22;3324;50.796;7.228;2022-10-17T13:09:31;21.90;99.90
6581;DHT22;3324;50.796;7.228;2022-10-17T13:12:02;21.80;99.90
6581;DHT22;3324;50.796;7.228;2022-10-17T13:14:31;21.80;99.90
6581;DHT22;3324;50.796;7.228;2022-10-17T13:17:03;21.90;99.90
6581;DHT22;3324;50.796;7.228;2022-10-17T13:19:40;22.00;99.90
6581;DHT22;3324;50.796;7.228;2022-10-17T13:22:16;22.10;99.90
6581;DHT22;3324;50.796;7.228;2022-10-17T13:24:43;22.00;99.90
6581;DHT22;3324;50.796;7.228;2022-10-17T13:27:25;22.00;99.90
6581;DHT22;3324;50.796;7.228;2022-10-17T13:29:51;21.90;99.90
6581;DHT22;3324;50.796;7.228;2022-10-17T13:32:17;21.80;99.90
6581;DHT22;3324;50.796;7.228;2022-10-17T13:34:43;21.80;99.90
6581;DHT22;3324;50.796;7.228;2022-10-17T13:37:13;21.70;99.90
6581;DHT22;3324;50.796;7.228;2022-10-17T13:39:42;21.80;99.90
6581;DHT22;3324;50.796;7.228;2022-10-17T13:42:16;21.80;99.90
6581;DHT22;3324;50.796;7.228;2022-10-17T13:44:45;21.90;99.90
6581;DHT22;3324;50.796;7.228;2022-10-17T13:47:33;21.90;99.90
6581;DHT22;3324;50.796;7.228;2022-10-17T13:50:00;21.80;99.90
6581;DHT22;3324;50.796;7.228;2022-10-17T13:52:27;21.80;99.90
6581;DHT22;3324;50.796;7.228;2022-10-17T13:54:54;21.80;99.90
6581;DHT22;3324;50.796;7.228;2022-10-17T13:57:26;21.80;99.90
6581;DHT22;3324;50.796;7.228;2022-10-17T13:59:57;21.70;99.90
6581;DHT22;3324;50.796;7.228;2022-10-17T14:02:26;21.70;99.90
6581;DHT22;3324;50.796;7.228;2022-10-17T14:09:58;21.70;99.90
6581;DHT22;3324;50.796;7.228;2022-10-17T14:12:24;21.70;99.90
6581;DHT22;3324;50.796;7.228;2022-10-17T14:14:52;21.70;99.90
6581;DHT22;3324;50.796;7.228;2022-10-17T14:17:23;21.70;99.90
6581;DHT22;3324;50.796;7.228;2022-10-17T14:20:02;21.70;99.90
6581;DHT22;3324;50.796;7.228;2022-10-17T14:22:32;21.70;99.90
6581;DHT22;3324;50.796;7.228;2022-10-17T14:24:58;21.70;99.90
6581;DHT22;3324;50.796;7.228;2022-10-17T14:27:30;21.60;99.90
6581;DHT22;3324;50.796;7.228;2022-10-17T14:29:59;21.50;99.90
6581;DHT22;3324;50.796;7.228;2022-10-17T14:32:29;21.40;99.90
6581;DHT22;3324;50.796;7.228;2022-10-17T14:34:56;21.40;99.90
6581;DHT22;3324;50.796;7.228;2022-10-17T14:40:20;21.40;99.90
6581;DHT22;3324;50.796;7.228;2022-10-17T14:42:49;21.30;99.90
6581;DHT22;3324;50.796;7.228;2022-10-17T14:45:34;21.40;99.90
6581;DHT22;3324;50.796;7.228;2022-10-17T14:48:05;21.50;99.90
6581;DHT22;3324;50.796;7.228;2022-10-17T14:50:33;21.40;99.90
6581;DHT22;3324;50.796;7.228;2022-10-17T14:53:06;21.40;99.90
6581;DHT22;3324;50.796;7.228;2022-10-17T14:55:58;21.40;99.90
6581;DHT22;3324;50.796;7.228;2022-10-17T14:58:26;21.30;99.90
6581;DHT22;3324;50.796;7.228;2022-10-17T15:00:53;21.20;99.90
6581;DHT22;3324;50.796;7.228;2022-10-17T15:03:18;21.10;99.90
6581;DHT22;3324;50.796;7.228;2022-10-17T15:05:48;21.10;99.90
6581;DHT22;3324;50.796;7.228;2022-10-17T15:08:19;21.00;99.90
6581;DHT22;3324;50.796;7.228;2022-10-17T15:10:46;21.00;99.90
6581;DHT22;3324;50.796;7.228;2022-10-17T15:13:12;20.90;99.90
6581;DHT22;3324;50.796;7.228;2022-10-17T15:15:39;20.90;99.90
6581;DHT22;3324;50.796;7.228;2022-10-17T15:18:05;20.90;99.90
6581;DHT22;3324;50.796;7.228;2022-10-17T15:20:32;20.80;99.90
6581;DHT22;3324;50.796;7.228;2022-10-17T15:22:59;20.80;99.90
6581;DHT22;3324;50.796;7.228;2022-10-17T15:25:26;20.80;99.90
6581;DHT22;3324;50.796;7.228;2022-10-17T15:27:53;20.80;99.90
6581;DHT22;3324;50.796;7.228;2022-10-17T15:30:23;20.70;99.90
6581;DHT22;3324;50.796;7.228;2022-10-17T15:32:49;20.70;99.90
6581;DHT22;3324;50.796;7.228;2022-10-17T15:35:16;20.70;99.90
6581;DHT22;3324;50.796;7.228;2022-10-17T15:37:43;20.70;99.90
6581;DHT22;3324;50.796;7.228;2022-10-17T15:42:42;20.70;99.90
6581;DHT22;3324;50.796;7.228;2022-10-17T15:45:14;20.70;99.90
6581;DHT22;3324;50.796;7.228;2022-10-17T15:47:41;20.60;99.90
6581;DHT22;3324;50.796;7.228;2022-10-17T15:50:13;20.60;99.90
6581;DHT22;3324;50.796;7.228;2022-10-17T15:52:39;20.60;99.90
6581;DHT22;3324;50.796;7.228;2022-10-17T15:55:06;20.50;99.90
6581;DHT22;3324;50.796;7.228;2022-10-17T15:57:36;20.50;99.90
6581;DHT22;3324;50.796;7.228;2022-10-17T16:00:04;20.50;99.90
6581;DHT22;3324;50.796;7.228;2022-10-17T16:02:31;20.40;99.90
6581;DHT22;3324;50.796;7.228;2022-10-17T16:04:58;20.40;99.90
6581;DHT22;3324;50.796;7.228;2022-10-17T16:07:24;20.30;99.90
6581;DHT22;3324;50.796;7.228;2022-10-17T16:09:50;20.30;99.90
6581;DHT22;3324;50.796;7.228;2022-10-17T16:12:18;20.20;99.90
6581;DHT22;3324;50.796;7.228;2022-10-17T16:14:45;20.20;99.90
6581;DHT22;3324;50.796;7.228;2022-10-17T16:17:14;20.20;99.90
6581;DHT22;3324;50.796;7.228;2022-10-17T16:19:41;20.20;99.90
6581;DHT22;3324;50.796;7.228;2022-10-17T16:22:21;20.20;99.90
6581;DHT22;3324;50.796;7.228;2022-10-17T16:24:47;20.20;99.90
6581;DHT22;3324;50.796;7.228;2022-10-17T16:27:13;20.20;99.90
6581;DHT22;3324;50.796;7.228;2022-10-17T16:29:38;20.20;99.90
6581;DHT22;3324;50.796;7.228;2022-10-17T16:32:04;20.20;99.90
6581;DHT22;3324;50.796;7.228;2022-10-17T16:34:30;20.20;99.90
6581;DHT22;3324;50.796;7.228;2022-10-17T16:36:56;20.10;99.90
6581;DHT22;3324;50.796;7.228;2022-10-17T16:39:22;20.10;99.90
6581;DHT22;3324;50.796;7.228;2022-10-17T16:41:47;20.10;99.90
6581;DHT22;3324;50.796;7.228;2022-10-17T16:44:13;20.00;99.90
6581;DHT22;3324;50.796;7.228;2022-10-17T16:46:39;20.00;99.90
6581;DHT22;3324;50.796;7.228;2022-10-17T16:49:05;20.00;99.90
6581;DHT22;3324;50.796;7.228;2022-10-17T16:51:31;20.00;99.90
6581;DHT22;3324;50.796;7.228;2022-10-17T16:53:58;19.90;99.90
6581;DHT22;3324;50.796;7.228;2022-10-17T16:56:25;19.90;99.90
6581;DHT22;3324;50.796;7.228;2022-10-17T16:58:54;19.90;99.90
6581;DHT22;3324;50.796;7.228;2022-10-17T17:01:22;19.90;99.90
6581;DHT22;3324;50.796;7.228;2022-10-17T17:03:49;19.90;99.90
6581;DHT22;3324;50.796;7.228;2022-10-17T17:06:16;19.90;99.90
6581;DHT22;3324;50.796;7.228;2022-10-17T17:08:42;19.80;99.90
6581;DHT22;3324;50.796;7.228;2022-10-17T17:11:09;19.90;99.90
6581;DHT22;3324;50.796;7.228;2022-10-17T17:13:36;19.80;99.90
6581;DHT22;3324;50.796;7.228;2022-10-17T17:18:31;19.80;99.90
6581;DHT22;3324;50.796;7.228;2022-10-17T17:20:59;19.90;99.90
6581;DHT22;3324;50.796;7.228;2022-10-17T17:23:25;19.80;99.90
6581;DHT22;3324;50.796;7.228;2022-10-17T17:25:59;19.80;99.90
6581;DHT22;3324;50.796;7.228;2022-10-17T17:28:26;19.80;99.90
6581;DHT22;3324;50.796;7.228;2022-10-17T17:30:52;19.70;99.90
6581;DHT22;3324;50.796;7.228;2022-10-17T17:33:18;19.70;99.90
6581;DHT22;3324;50.796;7.228;2022-10-17T17:35:44;19.70;99.90
6581;DHT22;3324;50.796;7.228;2022-10-17T17:38:10;19.60;99.90
6581;DHT22;3324;50.796;7.228;2022-10-17T17:40:35;19.60;99.90
6581;DHT22;3324;50.796;7.228;2022-10-17T17:43:01;19.70;99.90
6581;DHT22;3324;50.796;7.228;2022-10-17T17:45:27;19.70;99.90
6581;DHT22;3324;50.796;7.228;2022-10-17T17:47:53;19.60;99.90
6581;DHT22;3324;50.796;7.228;2022-10-17T17:50:19;19.60;99.90
6581;DHT22;3324;50.796;7.228;2022-10-17T17:52:45;19.60;99.90
6581;DHT22;3324;50.796;7.228;2022-10-17T17:55:13;19.50;99.90
6581;DHT22;3324;50.796;7.228;2022-10-17T17:57:39;19.50;99.90
6581;DHT22;3324;50.796;7.228;2022-10-17T18:00:05;19.40;99.90
6581;DHT22;3324;50.796;7.228;2022-10-17T18:02:31;19.40;99.90
6581;DHT22;3324;50.796;7.228;2022-10-17T18:04:56;19.40;99.90
6581;DHT22;3324;50.796;7.228;2022-10-17T18:07:22;19.30;99.90
6581;DHT22;3324;50.796;7.228;2022-10-17T18:09:48;19.40;99.90